Time;durP1;ratioP1;P1;durP2;ratioP2;P2;SDS_P1;SDS_P2;PMS_P1;PMS_P2;Temp;Humidity;BMP_temperature;BMP_pressure;BME280_temperature;BME280_humidity;BME280_pressure;Samples;Min_cycle;Max_cycle;Signal;HPM_P1;HPM_P2
2023/02/21 02:13:48;;;;;;;44.10;23.73;;;;;;;5.44;65.26;100376.38;10396671;28;20056;-79
2023/02/21 02:19:33;;;;;;;39.17;22.13;;;;;;;5.54;65.41;100368.25;10395149;28;20518;-79
2023/02/21 02:25:29;;;;;;;37.47;21.23;;;;;;;5.46;64.81;100364.22;10395751;28;20054;-79
2023/02/21 02:31:31;;;;;;;36.92;21.45;;;;;;;5.44;65.32;100363.41;10394891;28;20566;-79
2023/02/21 02:37:12;;;;;;;45.88;23.48;;;;;;;5.50;65.25;100365.81;10394328;28;20218;-79
2023/02/21 02:43:25;;;;;;;41.95;23.23;;;;;;;5.69;65.32;100366.91;10393864;28;20132;-79
2023/02/21 02:48:27;;;;;;;38.65;21.33;;;;;;;5.81;64.91;100363.06;10356906;28;20057;-79
2023/02/21 02:53:29;;;;;;;42.63;21.75;;;;;;;5.94;64.62;100359.16;10395813;28;20081;-79
2023/02/21 02:58:36;;;;;;;42.35;22.45;;;;;;;5.90;64.76;100352.38;10412247;28;20107;-79
2023/02/21 03:03:51;;;;;;;39.17;21.75;;;;;;;5.81;64.64;100348.34;10397443;28;20136;-78
2023/02/21 03:09:29;;;;;;;35.53;20.60;;;;;;;5.81;64.48;100339.69;10392417;28;20163;-79
2023/02/21 03:14:43;;;;;;;40.78;22.00;;;;;;;5.85;64.62;100333.50;10397220;28;20069;-79
2023/02/21 03:19:50;;;;;;;37.28;21.05;;;;;;;5.80;64.46;100328.47;10392766;28;20056;-79
2023/02/21 03:24:54;;;;;;;41.80;21.85;;;;;;;5.81;64.47;100319.78;10399859;28;20601;-79
2023/02/21 03:29:59;;;;;;;39.17;21.60;;;;;;;5.66;64.82;100335.00;10392388;28;20505;-79
2023/02/21 03:35:01;;;;;;;35.20;20.23;;;;;;;5.65;65.39;100328.16;10400352;28;20057;-79
2023/02/21 03:40:16;;;;;;;35.33;20.85;;;;;;;5.78;65.16;100324.25;10400921;28;20076;-79
2023/02/21 03:45:39;;;;;;;36.65;20.17;;;;;;;5.78;65.02;100319.06;10398892;28;20057;-79
2023/02/21 03:50:45;;;;;;;37.58;20.00;;;;;;;5.93;64.77;100327.16;10398026;28;20050;-79
2023/02/21 03:55:50;;;;;;;36.63;21.33;;;;;;;6.05;64.46;100326.72;10398391;28;20067;-79
2023/02/21 04:00:59;;;;;;;35.53;20.15;;;;;;;6.02;64.49;100332.00;10396557;28;20475;-79
2023/02/21 04:06:04;;;;;;;33.38;20.02;;;;;;;6.09;64.57;100335.25;10396028;28;20053;-79
2023/02/21 04:11:14;;;;;;;42.72;20.02;;;;;;;6.18;64.43;100329.75;10377949;28;20152;-79
2023/02/21 04:16:24;;;;;;;39.33;19.42;;;;;;;6.08;64.42;100329.19;10394567;28;20132;-79
2023/02/21 04:21:26;;;;;;;42.50;19.17;;;;;;;5.97;64.40;100326.16;10393032;28;20054;-79
2023/02/21 04:26:28;;;;;;;46.85;20.65;;;;;;;5.88;64.18;100328.22;10388202;28;20103;-79
2023/02/21 04:31:35;;;;;;;40.05;20.42;;;;;;;5.61;64.61;100332.59;10386424;28;20053;-78
2023/02/21 04:36:41;;;;;;;37.70;21.52;;;;;;;5.62;64.94;100329.09;10384293;28;20661;-79
2023/02/21 04:41:43;;;;;;;36.28;20.25;;;;;;;5.75;64.63;100330.38;10391312;28;20058;-79
2023/02/21 04:46:45;;;;;;;33.67;19.40;;;;;;;5.85;64.58;100328.31;10392836;28;20090;-79
2023/02/21 04:51:48;;;;;;;34.10;19.02;;;;;;;5.87;64.50;100319.59;10392834;28;20045;-79
2023/02/21 04:56:59;;;;;;;34.65;19.25;;;;;;;5.88;64.45;100320.44;10392739;28;20159;-79
2023/02/21 05:02:04;;;;;;;29.17;17.52;;;;;;;5.74;64.70;100318.28;10389017;28;20155;-79
2023/02/21 05:07:08;;;;;;;36.58;18.33;;;;;;;5.65;64.82;100329.00;10394101;28;20107;-79
2023/02/21 05:12:11;;;;;;;38.30;19.75;;;;;;;5.77;65.08;100323.41;10399331;28;20064;-79
2023/02/21 05:17:43;;;;;;;34.53;21.63;;;;;;;5.86;64.73;100323.06;10399831;28;20049;-79
2023/02/21 05:22:51;;;;;;;32.35;18.27;;;;;;;6.03;64.43;100320.75;10414051;28;20052;-79
2023/02/21 05:27:58;;;;;;;32.22;18.50;;;;;;;6.06;64.43;100320.63;10384334;28;20172;-79
2023/02/21 05:33:04;;;;;;;35.58;19.35;;;;;;;6.10;64.21;100319.59;10399703;28;20107;-79
2023/02/21 05:38:11;;;;;;;52.72;28.77;;;;;;;6.16;64.16;100311.63;10399891;28;20064;-79
2023/02/21 05:43:20;;;;;;;75.20;29.13;;;;;;;6.17;64.11;100310.72;10398544;28;20517;-79
2023/02/21 05:48:39;;;;;;;53.75;25.85;;;;;;;6.23;63.91;100317.44;10399384;28;20053;-79
2023/02/21 05:53:46;;;;;;;31.25;18.35;;;;;;;6.13;63.77;100318.66;10390535;28;20060;-79
2023/02/21 05:58:49;;;;;;;40.35;18.60;;;;;;;6.01;63.94;100325.16;10365547;28;20153;-79
2023/02/21 06:03:54;;;;;;;31.92;17.80;;;;;;;5.91;64.10;100328.09;10396540;28;20524;-79
2023/02/21 06:09:00;;;;;;;27.83;17.30;;;;;;;5.93;64.00;100328.91;10399040;28;20049;-79
2023/02/21 06:14:15;;;;;;;29.38;18.10;;;;;;;5.90;64.03;100329.84;10397384;28;20049;-79
2023/02/21 06:19:20;;;;;;;30.15;17.10;;;;;;;5.75;63.93;100326.94;10394819;28;20045;-79
2023/02/21 06:24:22;;;;;;;31.83;17.23;;;;;;;5.60;64.13;100330.03;10398456;28;20499;-79
2023/02/21 06:29:25;;;;;;;33.42;18.25;;;;;;;5.54;64.13;100331.09;10395333;28;20054;-78
2023/02/21 06:34:31;;;;;;;33.33;19.90;;;;;;;5.46;64.24;100327.91;10398471;28;20065;-79
2023/02/21 06:39:38;;;;;;;35.17;19.95;;;;;;;5.27;64.19;100324.19;10396307;28;20052;-79
2023/02/21 06:44:44;;;;;;;35.83;20.67;;;;;;;5.14;64.33;100328.94;10398606;28;20422;-79
2023/02/21 06:49:46;;;;;;;38.28;20.13;;;;;;;4.97;64.66;100327.75;10395135;28;20132;-79
2023/02/21 06:54:52;;;;;;;35.53;19.98;;;;;;;4.76;65.40;100312.88;10395799;28;20053;-79
2023/02/21 06:59:55;;;;;;;36.70;20.33;;;;;;;4.76;65.38;100312.88;10395016;28;20465;-79
2023/02/21 07:04:57;;;;;;;50.30;20.48;;;;;;;4.71;65.27;100320.78;10396196;28;20107;-78
2023/02/21 07:10:00;;;;;;;36.25;20.80;;;;;;;4.72;65.52;100324.22;10354780;28;20104;-79
2023/02/21 07:15:05;;;;;;;33.58;19.63;;;;;;;4.72;65.59;100324.22;10337250;28;20064;-79
2023/02/21 07:20:08;;;;;;;33.75;18.92;;;;;;;4.66;65.96;100328.66;10354697;28;20058;-78
2023/02/21 07:25:17;;;;;;;29.83;17.50;;;;;;;4.82;65.88;100329.06;10343619;28;20491;-79
2023/02/21 07:30:26;;;;;;;44.22;21.70;;;;;;;5.05;65.52;100325.75;10338522;28;20062;-79
2023/02/21 07:35:28;;;;;;;32.33;19.48;;;;;;;5.22;65.38;100341.66;10348811;28;20061;-79
2023/02/21 07:40:57;;;;;;;33.25;17.55;;;;;;;5.46;65.01;100338.28;10346717;28;20089;-79
2023/02/21 07:46:45;;;;;;;29.45;17.73;;;;;;;5.70;64.23;100326.22;10280819;28;20058;-79
2023/02/21 07:52:14;;;;;;;27.33;16.70;;;;;;;5.87;64.15;100332.56;10285390;28;20061;-79
2023/02/21 08:04:53;;;;;;;28.98;17.08;;;;;;;6.09;63.11;100336.09;10329331;28;20499;-79
2023/02/21 08:10:14;;;;;;;25.90;16.75;;;;;;;6.04;63.55;100324.19;10350253;28;20045;-79
2023/02/21 08:15:49;;;;;;;26.08;15.35;;;;;;;6.14;63.50;100328.97;10383479;28;20061;-79
2023/02/21 08:21:01;;;;;;;25.67;16.90;;;;;;;6.34;63.06;100318.78;10372579;28;20056;-79
2023/02/21 08:26:04;;;;;;;25.88;17.15;;;;;;;6.72;62.79;100319.09;10371735;28;20061;-79
2023/02/21 08:31:06;;;;;;;24.48;15.98;;;;;;;7.02;62.40;100316.16;10368146;28;20136;-79
2023/02/21 08:36:08;;;;;;;22.77;15.57;;;;;;;7.27;62.00;100318.66;10385380;28;20049;-78
2023/02/21 08:41:10;;;;;;;23.95;15.27;;;;;;;7.45;61.56;100317.91;10384594;28;20573;-78
2023/02/21 08:46:14;;;;;;;23.20;14.60;;;;;;;7.65;61.42;100304.91;10366337;28;20630;-78
2023/02/21 08:51:16;;;;;;;25.17;15.50;;;;;;;7.95;61.19;100308.84;10356516;28;20054;-78
2023/02/21 08:56:20;;;;;;;24.45;15.27;;;;;;;8.16;60.57;100308.84;10352452;28;20054;-78
2023/02/21 09:01:23;;;;;;;27.30;15.95;;;;;;;8.04;60.64;100305.81;10354140;28;20259;-78
2023/02/21 09:06:25;;;;;;;22.58;14.40;;;;;;;8.36;60.20;100294.03;10355620;28;20061;-79
2023/02/21 09:11:28;;;;;;;25.27;14.57;;;;;;;8.46;59.93;100294.47;10359506;28;20046;-79
2023/02/21 09:16:29;;;;;;;21.52;14.25;;;;;;;9.15;58.92;100299.00;10356025;28;20136;-78
2023/02/21 09:21:32;;;;;;;20.55;13.48;;;;;;;9.76;57.87;100289.00;10357566;28;20053;-79
2023/02/21 09:26:34;;;;;;;23.90;14.93;;;;;;;9.90;57.02;100291.75;10373239;28;20050;-78
2023/02/21 09:31:36;;;;;;;24.17;14.77;;;;;;;10.17;56.57;100285.13;10358174;28;20053;-78
2023/02/21 09:36:38;;;;;;;24.15;15.75;;;;;;;10.35;55.97;100276.31;10357947;28;20085;-79
2023/02/21 09:41:43;;;;;;;22.38;15.07;;;;;;;10.35;55.53;100281.53;10358926;28;20085;-78
2023/02/21 09:46:53;;;;;;;21.45;13.93;;;;;;;10.31;55.43;100269.53;10357067;28;20065;-78
2023/02/21 09:51:57;;;;;;;20.02;14.25;;;;;;;10.32;55.69;100272.97;10357440;28;20965;-79
2023/02/21 09:57:02;;;;;;;22.33;14.55;;;;;;;10.39;55.46;100266.50;10356747;28;20057;-79
2023/02/21 10:02:12;;;;;;;22.33;14.57;;;;;;;10.56;54.80;100274.31;10357306;28;20573;-79
2023/02/21 10:07:25;;;;;;;20.52;14.15;;;;;;;10.68;55.32;100265.78;10353930;28;20076;-78
2023/02/21 10:12:32;;;;;;;21.55;13.68;;;;;;;11.10;53.63;100273.03;10356536;28;20049;-78
2023/02/21 10:17:45;;;;;;;19.83;13.10;;;;;;;11.06;53.72;100271.53;10355218;28;20054;-78
2023/02/21 10:22:49;;;;;;;19.27;13.43;;;;;;;11.23;53.97;100266.19;10357545;28;20188;-78
2023/02/21 10:27:52;;;;;;;21.63;13.88;;;;;;;11.16;53.95;100270.94;10355914;28;20068;-78
2023/02/21 10:32:55;;;;;;;20.70;13.68;;;;;;;11.28;53.72;100267.59;10354507;28;20487;-78
2023/02/21 10:37:59;;;;;;;19.85;12.98;;;;;;;11.44;53.65;100275.41;10355036;28;20140;-79
2023/02/21 10:43:16;;;;;;;20.67;12.60;;;;;;;11.57;52.84;100275.56;10354258;28;20096;-79
2023/02/21 10:48:20;;;;;;;19.67;12.48;;;;;;;11.61;53.03;100274.44;10355602;28;20053;-79
2023/02/21 10:53:26;;;;;;;18.20;12.35;;;;;;;11.73;53.02;100264.09;10354510;28;20038;-78
2023/02/21 10:58:29;;;;;;;19.63;11.95;;;;;;;11.80;52.64;100264.56;10355768;28;20400;-79
2023/02/21 11:03:31;;;;;;;16.38;11.75;;;;;;;11.90;52.97;100257.84;10352942;28;20046;-79
2023/02/21 11:08:39;;;;;;;17.25;11.63;;;;;;;11.90;52.34;100236.88;10355581;28;20073;-79
2023/02/21 11:13:42;;;;;;;14.95;10.57;;;;;;;12.11;52.79;100230.31;10354754;28;20050;-79
2023/02/21 11:18:45;;;;;;;14.75;10.98;;;;;;;12.01;53.06;100223.94;10349518;28;20053;-79
2023/02/21 11:24:03;;;;;;;15.15;10.70;;;;;;;12.02;52.32;100209.94;10350883;28;20050;-79
2023/02/21 11:29:13;;;;;;;15.00;9.63;;;;;;;11.98;53.37;100203.19;10353258;28;20057;-78
2023/02/21 11:34:19;;;;;;;14.32;10.02;;;;;;;12.22;53.14;100193.81;10349421;28;20073;-79
2023/02/21 11:39:26;;;;;;;14.70;9.43;;;;;;;12.26;53.10;100197.91;10352837;28;20066;-78
2023/02/21 11:44:30;;;;;;;12.88;8.95;;;;;;;12.26;52.95;100181.34;10351888;28;20046;-79
2023/02/21 11:50:02;;;;;;;13.55;9.40;;;;;;;12.40;52.43;100182.19;10352774;28;20057;-79
2023/02/21 11:55:13;;;;;;;13.13;9.45;;;;;;;12.46;51.98;100173.94;10351833;28;20132;-78
2023/02/21 12:00:35;;;;;;;14.75;9.05;;;;;;;12.47;51.96;100165.13;10351677;28;20056;-79
2023/02/21 12:05:55;;;;;;;14.32;9.15;;;;;;;12.65;52.42;100153.47;10351108;28;20075;-79
2023/02/21 12:11:14;;;;;;;15.10;9.43;;;;;;;13.03;51.56;100147.50;10367250;28;20045;-79
2023/02/21 12:16:44;;;;;;;14.98;9.40;;;;;;;13.12;50.58;100131.09;10351017;28;20072;-79
2023/02/21 12:21:46;;;;;;;13.85;9.50;;;;;;;13.05;51.64;100124.59;10349516;28;20451;-79
2023/02/21 12:27:11;;;;;;;14.30;9.88;;;;;;;13.19;51.20;100108.75;10350734;28;20746;-79
2023/02/21 12:32:39;;;;;;;15.05;9.57;;;;;;;13.16;51.41;100101.06;10350841;28;20058;-79
2023/02/21 12:38:03;;;;;;;14.23;8.90;;;;;;;13.21;51.05;100099.00;10335313;28;20046;-78
2023/02/21 12:43:17;;;;;;;14.18;8.80;;;;;;;13.14;51.58;100098.56;10348463;28;20050;-78
2023/02/21 12:48:28;;;;;;;13.27;8.70;;;;;;;13.20;51.30;100090.25;10352586;28;20124;-79
2023/02/21 12:53:39;;;;;;;15.10;8.88;;;;;;;13.49;51.33;100085.69;10349895;28;20054;-78
2023/02/21 12:58:50;;;;;;;12.23;8.60;;;;;;;13.62;51.01;100074.19;10349564;28;20061;-79
2023/02/21 13:03:55;;;;;;;13.85;8.70;;;;;;;13.77;50.97;100070.50;10349002;28;20519;-79
2023/02/21 13:09:25;;;;;;;12.52;7.75;;;;;;;13.90;50.63;100065.22;10365088;28;20066;-78
2023/02/21 13:14:35;;;;;;;13.57;8.30;;;;;;;13.98;50.78;100049.72;10349490;28;20060;-78
2023/02/21 13:20:16;;;;;;;12.52;7.80;;;;;;;14.06;51.11;100042.13;10350013;28;20060;-79
2023/02/21 13:25:32;;;;;;;10.00;6.43;;;;;;;14.36;49.75;100034.63;10320614;28;20050;-79
2023/02/21 13:30:45;;;;;;;12.05;7.95;;;;;;;14.42;50.67;100017.53;10345977;28;20632;-79
2023/02/21 13:35:50;;;;;;;18.65;12.60;;;;;;;14.62;49.97;100008.19;10345741;28;20068;-79
2023/02/21 13:41:04;;;;;;;10.32;7.07;;;;;;;14.59;49.82;100002.19;10348745;28;20458;-79
2023/02/21 13:46:29;;;;;;;11.57;7.47;;;;;;;14.57;49.61;100001.47;10364604;28;20096;-78
2023/02/21 13:51:47;;;;;;;11.23;7.40;;;;;;;14.64;49.47;99983.44;10362420;28;20049;-79
2023/02/21 13:56:50;;;;;;;13.20;7.53;;;;;;;14.80;49.53;99980.50;10344548;28;20045;-78
2023/02/21 14:02:18;;;;;;;9.55;6.05;;;;;;;14.85;49.31;99978.31;10350379;28;20054;-79
2023/02/21 14:07:41;;;;;;;10.80;5.95;;;;;;;14.93;48.98;99975.94;10340767;28;20054;-77
2023/02/21 14:12:44;;;;;;;9.35;6.13;;;;;;;15.06;49.06;99966.16;10344675;28;20696;-77
2023/02/21 14:17:47;;;;;;;9.02;5.97;;;;;;;15.02;49.57;99969.97;10343672;28;20526;-77
2023/02/21 14:22:52;;;;;;;15.38;9.75;;;;;;;14.97;48.67;99958.94;10348235;28;20044;-79
2023/02/21 14:27:55;;;;;;;10.93;6.15;;;;;;;15.06;48.77;99955.63;10344723;28;20089;-77
2023/02/21 14:33:08;;;;;;;11.68;6.10;;;;;;;15.30;48.65;99949.28;10349970;28;20060;-77
2023/02/21 14:38:31;;;;;;;14.75;6.30;;;;;;;15.22;49.01;99950.81;10342049;28;20045;-77
2023/02/21 14:43:47;;;;;;;11.63;6.90;;;;;;;15.24;48.76;99941.00;10347376;28;20045;-77
2023/02/21 14:49:27;;;;;;;12.50;6.93;;;;;;;15.26;49.19;99932.03;10346650;28;20053;-77
2023/02/21 14:54:59;;;;;;;11.45;7.78;;;;;;;15.21;48.73;99933.31;10349127;28;20068;-77
2023/02/21 15:00:19;;;;;;;12.57;6.32;;;;;;;15.22;48.46;99924.47;10342275;28;20058;-78
2023/02/21 15:05:30;;;;;;;11.75;6.22;;;;;;;15.15;49.04;99923.28;10354538;28;20049;-79
2023/02/21 15:10:39;;;;;;;11.32;5.80;;;;;;;15.12;49.29;99915.63;10358658;28;20084;-78
2023/02/21 15:15:41;;;;;;;8.25;5.55;;;;;;;15.13;49.82;99912.03;10350374;28;20081;-79
2023/02/21 15:20:43;;;;;;;8.73;5.03;;;;;;;15.11;50.24;99912.16;10352614;28;20096;-78
2023/02/21 15:25:53;;;;;;;10.05;5.05;;;;;;;15.04;50.36;99905.66;10350097;28;20049;-77
2023/02/21 15:30:59;;;;;;;10.05;5.32;;;;;;;14.94;50.05;99903.91;10347417;28;20653;-77
2023/02/21 15:36:20;;;;;;;13.98;5.03;;;;;;;14.98;50.30;99908.78;10357120;28;20065;-77
2023/02/21 15:41:46;;;;;;;9.52;5.03;;;;;;;14.88;50.32;99904.38;10346189;28;20057;-79
2023/02/21 15:47:03;;;;;;;11.75;5.05;;;;;;;14.89;50.55;99895.50;10344502;28;20077;-79
2023/02/21 15:52:06;;;;;;;9.77;4.82;;;;;;;14.92;50.13;99904.00;10346565;28;20060;-79
2023/02/21 15:57:20;;;;;;;9.65;4.97;;;;;;;14.88;50.08;99901.75;10346317;28;20479;-78
2023/02/21 16:02:24;;;;;;;14.98;5.50;;;;;;;14.83;50.49;99899.47;10343550;28;20499;-77
2023/02/21 16:07:36;;;;;;;11.40;5.65;;;;;;;14.75;50.43;99893.97;10343087;28;21028;-80
2023/02/21 16:12:45;;;;;;;12.38;6.35;;;;;;;14.66;50.85;99897.28;10347575;28;20046;-80
2023/02/21 16:17:59;;;;;;;8.80;5.45;;;;;;;14.43;51.30;99899.00;10344431;28;20607;-79
2023/02/21 16:23:26;;;;;;;11.15;5.38;;;;;;;14.09;52.36;99892.00;10342196;28;20392;-79
2023/02/21 16:28:31;;;;;;;22.77;14.45;;;;;;;13.99;53.07;99890.16;10357955;28;20062;-79
2023/02/21 16:33:38;;;;;;;19.95;11.13;;;;;;;13.75;53.60;99892.81;10345512;28;20045;-79
2023/02/21 16:38:43;;;;;;;19.30;12.30;;;;;;;13.46;54.00;99889.66;10343469;28;20128;-80
2023/02/21 16:43:47;;;;;;;18.95;11.20;;;;;;;13.23;54.52;99884.38;10347590;28;20127;-80
2023/02/21 16:48:54;;;;;;;15.57;9.93;;;;;;;13.01;54.94;99897.31;10344181;28;20054;-79
2023/02/21 16:53:58;;;;;;;13.00;8.57;;;;;;;12.61;55.70;99892.22;10347761;28;20053;-79
2023/02/21 16:59:02;;;;;;;11.35;6.65;;;;;;;12.36;56.31;99899.22;10344780;28;20065;-79
2023/02/21 17:04:14;;;;;;;12.55;7.32;;;;;;;12.03;57.08;99899.66;10336789;28;20459;-79
2023/02/21 17:09:17;;;;;;;;;;;;;;;11.69;57.97;99903.66;10351949;28;20411;-79
2023/02/21 17:14:19;;;;;;;14.63;6.70;;;;;;;11.90;57.35;99904.03;10355839;28;19921;-79
2023/02/21 17:19:23;;;;;;;12.73;7.05;;;;;;;11.77;57.47;99911.00;10358018;28;20057;-79
2023/02/21 17:24:29;;;;;;;17.42;10.52;;;;;;;11.49;58.04;99918.97;10359870;28;20573;-79
2023/02/21 17:29:31;;;;;;;20.63;14.18;;;;;;;11.24;58.49;99923.13;10355741;28;20058;-79
2023/02/21 17:34:34;;;;;;;12.70;7.60;;;;;;;11.05;59.24;99924.38;10357533;28;20066;-79
2023/02/21 17:39:37;;;;;;;13.63;7.15;;;;;;;10.95;59.67;99918.81;10352999;28;20565;-79
2023/02/21 17:44:45;;;;;;;10.73;6.43;;;;;;;10.86;60.17;99929.88;10350510;28;20104;-80
2023/02/21 17:49:49;;;;;;;11.30;6.75;;;;;;;10.68;60.55;99932.75;10357926;28;20065;-79
2023/02/21 17:54:53;;;;;;;18.00;9.95;;;;;;;10.49;60.72;99926.00;10354275;28;20144;-80
2023/02/21 17:59:59;;;;;;;15.75;9.55;;;;;;;10.24;61.14;99938.81;10346953;28;20104;-80
2023/02/21 18:05:12;;;;;;;10.88;6.13;;;;;;;10.06;61.68;99925.97;10351274;28;20049;-80
2023/02/21 18:10:19;;;;;;;9.55;5.25;;;;;;;9.89;62.23;99937.38;10358679;28;20546;-80
2023/02/21 18:15:27;;;;;;;14.75;8.25;;;;;;;9.79;62.16;99941.44;10346507;28;20547;-80
2023/02/21 18:20:34;;;;;;;13.25;6.40;;;;;;;9.67;62.37;99941.31;10346871;28;20549;-80
2023/02/21 18:25:36;;;;;;;14.38;8.20;;;;;;;9.51;62.58;99943.88;10364349;28;20152;-80
2023/02/21 18:30:38;;;;;;;11.68;6.75;;;;;;;9.38;62.77;99940.28;10344676;28;20546;-80
2023/02/21 18:35:42;;;;;;;9.00;4.80;;;;;;;9.27;63.34;99943.47;10349215;28;20867;-80
2023/02/21 18:40:44;;;;;;;7.85;4.50;;;;;;;9.26;63.40;99948.78;10347534;28;20414;-80
2023/02/21 18:45:54;;;;;;;9.30;4.85;;;;;;;9.09;63.22;99947.06;10340046;28;20446;-80
2023/02/21 18:50:57;;;;;;;7.28;4.90;;;;;;;8.97;63.49;99949.47;10340008;28;20054;-80
2023/02/21 18:55:59;;;;;;;24.15;16.13;;;;;;;8.86;63.31;99955.25;10347373;28;20060;-80
2023/02/21 19:01:01;;;;;;;12.95;8.40;;;;;;;8.74;63.99;99954.13;10347840;28;20139;-80
2023/02/21 19:06:09;;;;;;;11.45;6.43;;;;;;;8.70;64.14;99962.19;10357441;28;20064;-80
2023/02/21 19:11:14;;;;;;;10.77;5.25;;;;;;;8.69;64.71;99955.28;10346653;28;20050;-80
2023/02/21 19:16:18;;;;;;;11.85;5.40;;;;;;;8.66;64.45;99955.44;10343652;28;20073;-80
2023/02/21 19:21:23;;;;;;;13.55;8.52;;;;;;;8.54;64.43;99956.94;10352016;28;20060;-80
2023/02/21 19:26:28;;;;;;;22.15;12.95;;;;;;;8.40;64.40;99948.13;10346988;28;20396;-80
2023/02/21 19:31:34;;;;;;;11.82;6.75;;;;;;;8.17;64.47;99957.09;10336930;28;20049;-80
2023/02/21 19:36:37;;;;;;;8.38;5.63;;;;;;;8.02;64.83;99958.66;10354396;28;20064;-80
2023/02/21 19:41:49;;;;;;;10.05;5.35;;;;;;;8.00;65.30;99957.03;10356004;28;20622;-80
2023/02/21 19:46:55;;;;;;;15.45;7.22;;;;;;;7.95;65.03;99952.06;10341496;28;20053;-80
2023/02/21 19:51:59;;;;;;;14.65;9.93;;;;;;;7.80;65.08;99955.41;10356317;28;20060;-80
2023/02/21 19:57:01;;;;;;;14.88;9.30;;;;;;;7.69;65.08;99965.47;10345862;28;20458;-80
2023/02/21 20:02:04;;;;;;;14.13;8.40;;;;;;;7.62;65.21;99963.22;10350380;28;20078;-80
2023/02/21 20:07:06;;;;;;;11.05;6.20;;;;;;;7.54;65.59;99963.59;10344798;28;20071;-80
2023/02/21 20:12:30;;;;;;;13.60;7.80;;;;;;;7.42;65.71;99966.78;10345472;28;20157;-80
2023/02/21 20:17:36;;;;;;;13.85;7.70;;;;;;;7.40;65.50;99959.94;10332609;28;20045;-80
2023/02/21 20:22:38;;;;;;;12.95;7.57;;;;;;;7.28;65.37;99963.97;10345963;28;20049;-80
2023/02/21 20:28:33;;;;;;;12.73;6.72;;;;;;;7.13;66.24;99959.44;10341804;28;20101;-80
2023/02/21 20:33:36;;;;;;;11.70;6.43;;;;;;;7.15;65.78;99958.47;10344616;28;20943;-80
2023/02/21 20:38:45;;;;;;;18.90;8.75;;;;;;;7.11;65.75;99953.47;10343674;28;20088;-80
2023/02/21 20:43:59;;;;;;;19.45;10.90;;;;;;;7.00;65.97;99959.16;10346124;28;20129;-80
2023/02/21 20:49:12;;;;;;;12.98;8.73;;;;;;;6.94;65.79;99951.63;10351820;28;20058;-80
2023/02/21 20:54:20;;;;;;;17.02;10.02;;;;;;;6.85;65.75;99956.41;10375718;28;20392;-80
2023/02/21 20:59:38;;;;;;;17.92;10.50;;;;;;;6.79;65.72;99956.66;10355605;28;20087;-80
2023/02/21 21:04:42;;;;;;;15.40;8.63;;;;;;;6.72;65.67;99961.28;10357798;28;20089;-80
2023/02/21 21:09:44;;;;;;;19.77;13.10;;;;;;;6.66;65.96;99955.50;10364117;28;20053;-80
2023/02/21 21:14:49;;;;;;;16.58;10.35;;;;;;;6.62;66.11;99959.16;10350594;28;20143;-80
2023/02/21 21:19:53;;;;;;;13.90;7.78;;;;;;;6.55;66.26;99962.94;10356469;28;20049;-80
2023/02/21 21:24:57;;;;;;;26.98;13.75;;;;;;;6.38;66.07;99958.44;10366136;28;20056;-80
2023/02/21 21:30:00;;;;;;;15.45;9.35;;;;;;;6.21;66.24;99961.72;10358862;28;20054;-80
2023/02/21 21:35:05;;;;;;;10.43;6.85;;;;;;;6.25;66.64;99959.84;10358579;28;20058;-80
2023/02/21 21:40:17;;;;;;;13.27;7.18;;;;;;;6.26;66.54;99953.78;10359558;28;20092;-80
2023/02/21 21:45:25;;;;;;;13.23;7.43;;;;;;;6.20;66.55;99960.03;10362967;28;20511;-80
2023/02/21 21:50:27;;;;;;;14.70;8.23;;;;;;;6.22;66.41;99952.19;10383673;28;20107;-80
2023/02/21 21:55:30;;;;;;;14.95;8.70;;;;;;;6.18;66.47;99946.28;10355955;28;20042;-80
2023/02/21 22:00:40;;;;;;;18.13;11.18;;;;;;;6.11;66.21;99950.00;10350325;28;20065;-80
2023/02/21 22:05:43;;;;;;;15.60;8.50;;;;;;;6.01;66.33;99950.44;10353371;28;20056;-80
2023/02/21 22:10:47;;;;;;;28.23;14.93;;;;;;;5.93;66.20;99944.72;10356091;28;20575;-80
2023/02/21 22:15:49;;;;;;;20.00;12.75;;;;;;;5.84;66.25;99951.13;10349563;28;20049;-80
2023/02/21 22:20:51;;;;;;;17.58;10.57;;;;;;;5.78;66.07;99942.78;10349202;28;20637;-80
2023/02/21 22:25:56;;;;;;;26.30;14.88;;;;;;;5.65;66.12;99939.81;10352523;28;20490;-80
2023/02/21 22:30:58;;;;;;;17.20;8.93;;;;;;;5.61;66.50;99937.38;10350415;28;20063;-80
2023/02/21 22:36:01;;;;;;;17.20;9.77;;;;;;;5.58;66.44;99933.16;10345399;28;20057;-80
2023/02/21 22:41:03;;;;;;;18.10;10.05;;;;;;;5.50;66.36;99930.88;10353083;28;20495;-80
2023/02/21 22:46:06;;;;;;;32.80;17.05;;;;;;;5.28;66.43;99919.66;10345779;28;20049;-80
2023/02/21 22:51:08;;;;;;;18.95;10.93;;;;;;;5.20;66.76;99926.03;10339838;28;20077;-80
2023/02/21 22:56:13;;;;;;;18.00;11.18;;;;;;;5.24;66.75;99925.84;10345627;28;20046;-80
2023/02/21 23:01:19;;;;;;;25.10;13.38;;;;;;;5.11;66.52;99926.34;10355498;28;20062;-80
2023/02/21 23:06:22;;;;;;;16.92;9.07;;;;;;;5.04;66.90;99922.31;10344843;28;20061;-80
2023/02/21 23:11:24;;;;;;;20.58;10.85;;;;;;;5.05;66.80;99921.41;10346553;28;20058;-80
2023/02/21 23:16:26;;;;;;;16.42;8.68;;;;;;;4.70;66.57;99914.91;10344365;28;20050;-80
2023/02/21 23:21:29;;;;;;;16.52;7.85;;;;;;;4.72;67.11;99914.88;10346452;28;20042;-80
2023/02/21 23:26:31;;;;;;;34.28;10.95;;;;;;;4.75;66.90;99907.84;10351584;28;20050;-80
2023/02/21 23:31:32;;;;;;;44.90;26.25;;;;;;;4.72;66.78;99908.78;10343643;28;20066;-80
2023/02/21 23:36:38;;;;;;;34.40;21.02;;;;;;;4.70;66.70;99900.22;10343895;28;20048;-80
2023/02/21 23:41:41;;;;;;;45.20;26.98;;;;;;;4.67;66.84;99900.34;10349702;28;20050;-80
2023/02/21 23:46:43;;;;;;;32.45;16.85;;;;;;;4.65;66.83;99896.13;10347240;28;20455;-80
2023/02/21 23:51:47;;;;;;;24.20;15.32;;;;;;;4.64;66.67;99897.00;10343751;28;20061;-80
2023/02/21 23:56:49;;;;;;;33.40;18.23;;;;;;;4.61;66.39;99900.59;10349363;28;20045;-80
